createdAt,value
2022-10-25T03:45:34.887Z,100.00
2022-10-25T04:00:53.711Z,100.00
2022-10-25T04:14:03.230Z,100.00
2022-10-25T04:15:37.214Z,100.00
2022-10-25T04:17:14.993Z,100.00
2022-10-25T04:18:25.876Z,100.00
2022-10-25T04:19:31.688Z,100.00
2022-10-25T04:20:34.103Z,100.00
2022-10-25T04:21:36.575Z,100.00
2022-10-25T04:22:39.335Z,100.00
2022-10-25T04:23:42.589Z,100.00
2022-10-25T04:24:46.587Z,100.00
2022-10-25T04:25:50.370Z,100.00
2022-10-25T04:26:53.052Z,100.00
2022-10-25T04:28:07.205Z,100.00
2022-10-25T04:29:14.484Z,100.00
2022-10-25T04:30:36.490Z,100.00
2022-10-25T04:31:51.756Z,100.00
2022-10-25T04:33:07.783Z,100.00
2022-10-25T04:34:23.886Z,100.00
2022-10-25T04:35:38.823Z,100.00
2022-10-25T04:36:53.075Z,100.00
2022-10-25T04:38:03.114Z,100.00
2022-10-25T04:39:11.153Z,100.00
2022-10-25T04:40:24.091Z,100.00
2022-10-25T04:41:27.792Z,100.00
2022-10-25T04:42:36.579Z,100.00
2022-10-25T04:43:51.169Z,100.00
2022-10-25T04:44:53.988Z,100.00
2022-10-25T04:46:01.610Z,100.00
2022-10-25T04:47:04.063Z,100.00
2022-10-25T04:48:06.656Z,100.00
2022-10-25T04:49:14.293Z,100.00
2022-10-25T04:50:17.938Z,100.00
2022-10-25T04:51:22.593Z,100.00
2022-10-25T04:52:32.022Z,100.00
2022-10-25T04:53:35.484Z,100.00
2022-10-25T04:54:38.079Z,100.00
2022-10-25T04:55:40.604Z,100.00
2022-10-25T04:56:45.075Z,100.00
2022-10-25T04:57:47.295Z,100.00
2022-10-25T04:58:50.595Z,100.00
2022-10-25T04:59:54.397Z,100.00
2022-10-25T05:01:03.328Z,100.00
2022-10-25T05:02:05.813Z,100.00
2022-10-25T05:03:10.898Z,100.00
2022-10-25T05:04:15.596Z,100.00
2022-10-25T05:05:18.903Z,100.00
2022-10-25T05:06:24.820Z,100.00
2022-10-25T05:07:27.009Z,100.00
2022-10-25T05:08:29.688Z,100.00
2022-10-25T05:09:31.934Z,100.00
2022-10-25T05:10:34.477Z,100.00
2022-10-25T05:12:39.296Z,100.00
2022-10-25T05:13:43.243Z,100.00
2022-10-25T05:14:46.067Z,100.00
2022-10-25T05:15:58.811Z,100.00
2022-10-25T05:17:02.512Z,100.00
2022-10-25T05:18:04.979Z,100.00
2022-10-25T05:19:07.435Z,100.00
2022-10-25T05:20:10.059Z,100.00
2022-10-25T05:21:12.747Z,100.00
2022-10-25T05:22:14.844Z,100.00
2022-10-25T05:23:17.663Z,100.00
2022-10-25T05:24:20.926Z,100.00
2022-10-25T05:25:22.871Z,100.00
2022-10-25T05:26:24.987Z,100.00
2022-10-25T05:27:26.984Z,100.00
2022-10-25T05:28:29.226Z,100.00
2022-10-25T05:29:34.756Z,100.00
2022-10-25T05:30:43.759Z,100.00
2022-10-25T05:31:51.816Z,100.00
2022-10-25T05:33:00.467Z,100.00
2022-10-25T05:34:05.784Z,100.00
2022-10-25T05:35:09.912Z,100.00
2022-10-25T05:36:16.181Z,100.00
2022-10-25T05:38:02.366Z,100.00
2022-10-25T05:39:05.146Z,100.00
2022-10-25T05:40:07.926Z,100.00
2022-10-25T05:41:12.038Z,100.00
2022-10-25T05:42:16.204Z,100.00
2022-10-25T05:43:19.833Z,100.00
2022-10-25T05:44:23.076Z,100.00
2022-10-25T05:45:35.495Z,100.00
2022-10-25T05:46:53.288Z,100.00
2022-10-25T05:48:04.440Z,100.00
2022-10-25T05:49:07.435Z,100.00
2022-10-25T05:50:14.819Z,100.00
2022-10-25T05:51:44.723Z,100.00
2022-10-25T05:52:49.661Z,100.00
2022-10-25T05:53:56.770Z,100.00
2022-10-25T05:55:00.198Z,100.00
2022-10-25T05:56:02.555Z,100.00
2022-10-25T05:57:13.885Z,100.00
2022-10-25T05:58:34.180Z,100.00
2022-10-25T05:59:42.720Z,100.00
2022-10-25T06:00:49.210Z,100.00
2022-10-25T06:01:53.378Z,100.00
2022-10-25T06:02:58.007Z,100.00
2022-10-25T06:04:02.642Z,100.00
2022-10-25T06:05:12.161Z,100.00
2022-10-25T06:06:19.336Z,100.00
2022-10-25T06:07:31.110Z,100.00
2022-10-25T06:08:48.646Z,100.00
2022-10-25T06:10:10.386Z,100.00
2022-10-25T06:11:29.517Z,100.00
2022-10-25T06:12:34.928Z,100.00
2022-10-25T06:13:43.626Z,100.00
2022-10-25T06:15:06.132Z,100.00
2022-10-25T06:16:23.647Z,100.00
2022-10-25T06:17:34.405Z,100.00
2022-10-25T06:18:52.744Z,100.00
2022-10-25T06:20:06.029Z,100.00
2022-10-25T06:21:16.274Z,100.00
2022-10-25T06:22:27.430Z,100.00
2022-10-25T06:23:46.874Z,100.00
2022-10-25T06:25:22.383Z,100.00
2022-10-25T06:26:32.882Z,100.00
2022-10-25T06:27:44.215Z,100.00
2022-10-25T06:29:23.749Z,100.00
2022-10-25T06:30:47.597Z,100.00
2022-10-25T06:31:59.236Z,100.00
2022-10-25T06:33:03.937Z,100.00
2022-10-25T06:34:22.698Z,100.00
2022-10-25T06:35:32.897Z,100.00
2022-10-25T06:36:39.344Z,100.00
2022-10-25T06:37:46.822Z,100.00
2022-10-25T06:39:05.131Z,100.00
2022-10-25T06:46:12.642Z,100.00
2022-10-25T06:50:20.989Z,100.00
2022-10-25T06:52:19.195Z,100.00
2022-10-25T06:54:06.565Z,100.00
2022-10-25T06:56:53.116Z,100.00
2022-10-25T06:58:02.422Z,100.00
2022-10-25T07:00:59.740Z,100.00
2022-10-25T07:02:07.868Z,100.00
2022-10-25T07:03:20.071Z,100.00
2022-10-25T07:05:32.573Z,100.00
2022-10-25T07:06:50.004Z,95.34
2022-10-25T07:13:18.492Z,62.00
2022-10-25T07:14:28.893Z,58.44
2022-10-25T07:15:36.459Z,56.27
2022-10-25T07:16:43.360Z,54.43
2022-10-25T07:17:49.536Z,53.96
2022-10-25T07:20:15.599Z,53.23
2022-10-25T07:21:33.769Z,50.68
2022-10-25T07:22:41.108Z,51.01
2022-10-25T07:23:45.963Z,49.53
2022-10-25T07:24:48.255Z,49.85
2022-10-25T07:25:52.888Z,49.69
2022-10-25T07:26:58.789Z,50.85
2022-10-25T07:28:02.477Z,51.03
2022-10-25T07:29:11.646Z,50.61
2022-10-25T07:30:15.700Z,50.36
2022-10-25T07:31:23.067Z,49.55
2022-10-25T07:32:26.181Z,48.64
2022-10-25T07:33:31.971Z,47.99
2022-10-25T07:34:39.013Z,49.30
2022-10-25T07:35:58.841Z,47.22
2022-10-25T07:37:12.312Z,45.12
2022-10-25T07:38:25.588Z,45.42
2022-10-25T07:39:37.715Z,45.13
2022-10-25T07:40:44.890Z,43.72
2022-10-25T07:41:52.221Z,43.77
2022-10-25T07:43:05.032Z,42.53
2022-10-25T07:44:24.897Z,42.70
2022-10-25T07:45:58.368Z,43.97
2022-10-25T07:47:13.192Z,44.68
2022-10-25T07:48:42.199Z,44.36
2022-10-25T07:49:57.713Z,42.72
2022-10-25T07:51:31.611Z,42.34
2022-10-25T07:52:34.522Z,42.33
2022-10-25T07:53:41.868Z,42.46
2022-10-25T07:54:52.820Z,42.55
2022-10-25T07:56:00.339Z,42.20
2022-10-25T07:57:10.818Z,41.88
2022-10-25T07:58:20.587Z,41.40
2022-10-25T08:00:17.849Z,40.50
2022-10-25T08:02:00.968Z,40.48
2022-10-25T08:03:39.992Z,43.92
2022-10-25T08:06:07.136Z,44.78
2022-10-25T08:07:11.930Z,44.06
2022-10-25T08:08:18.133Z,44.65
2022-10-25T08:09:44.717Z,45.87
2022-10-25T08:10:57.378Z,45.97
2022-10-25T08:13:11.164Z,44.85
2022-10-25T08:14:16.858Z,44.48
2022-10-25T08:15:20.990Z,44.71
2022-10-25T08:16:43.260Z,44.91
2022-10-25T08:18:23.599Z,45.36
2022-10-25T08:21:21.059Z,44.64
2022-10-25T08:22:29.291Z,45.00
2022-10-25T08:24:04.233Z,45.32
2022-10-25T08:25:13.524Z,46.18
2022-10-25T08:26:17.233Z,45.53
2022-10-25T08:27:21.890Z,45.19
2022-10-25T08:28:24.829Z,46.54
2022-10-25T08:29:27.531Z,46.63
2022-10-25T08:30:35.717Z,45.92
2022-10-25T08:31:49.526Z,46.26
2022-10-25T08:33:07.316Z,46.04
2022-10-25T08:34:14.689Z,46.43
2022-10-25T08:35:17.582Z,45.86
2022-10-25T08:36:20.497Z,45.46
2022-10-25T08:37:23.666Z,46.90
2022-10-25T08:38:29.646Z,47.24
2022-10-25T08:39:32.346Z,48.53
2022-10-25T08:41:02.171Z,49.92
2022-10-25T08:42:06.058Z,48.74
2022-10-25T08:43:46.004Z,47.36
2022-10-25T08:45:20.406Z,47.44
2022-10-25T08:46:50.004Z,47.38
2022-10-25T08:48:00.123Z,46.19
2022-10-25T08:49:28.487Z,46.25
2022-10-25T08:50:47.758Z,47.46
2022-10-25T08:51:54.283Z,47.78
2022-10-25T08:53:04.501Z,48.63
2022-10-25T08:55:14.013Z,48.74
2022-10-25T08:57:30.085Z,47.32
2022-10-25T08:58:41.636Z,47.52
2022-10-25T09:00:33.369Z,46.71
2022-10-25T09:04:54.394Z,47.33
2022-10-25T09:08:15.248Z,48.30
2022-10-25T09:09:27.387Z,49.19
2022-10-25T09:10:58.726Z,50.79
2022-10-25T09:12:09.028Z,51.04
2022-10-25T09:13:36.808Z,50.09
2022-10-25T09:14:53.791Z,49.64
2022-10-25T09:16:14.571Z,50.59
2022-10-25T09:18:46.955Z,50.31
2022-10-25T09:20:09.160Z,51.25
2022-10-25T09:21:22.423Z,50.11
2022-10-25T09:22:52.277Z,52.13
2022-10-25T09:24:06.490Z,52.01
2022-10-25T09:25:23.974Z,52.86
2022-10-25T09:26:47.320Z,51.68
2022-10-25T09:28:00.577Z,53.06
2022-10-25T09:29:07.757Z,53.59
2022-10-25T09:30:13.717Z,54.25
2022-10-25T09:31:26.347Z,53.97
2022-10-25T09:32:44.965Z,54.44
2022-10-25T09:33:50.762Z,53.99
2022-10-25T09:34:57.027Z,53.63
2022-10-25T09:36:04.535Z,53.83
2022-10-25T09:37:18.501Z,53.69
2022-10-25T09:38:40.706Z,55.14
2022-10-25T09:39:50.321Z,54.86
2022-10-25T09:41:31.485Z,54.21
2022-10-25T09:42:42.106Z,54.39
2022-10-25T09:44:21.777Z,54.64
2022-10-25T09:45:45.870Z,53.28
2022-10-25T09:46:55.808Z,53.69
2022-10-25T09:48:13.740Z,53.90
2022-10-25T09:51:17.147Z,53.86
2022-10-25T09:54:41.120Z,55.17
2022-10-25T09:56:00.781Z,54.57
2022-10-25T09:57:18.484Z,55.20
2022-10-25T09:58:42.011Z,56.28
2022-10-25T09:59:51.635Z,55.78
2022-10-25T10:01:00.212Z,55.24
2022-10-25T10:02:25.322Z,55.42
2022-10-25T10:03:37.285Z,55.71
2022-10-25T10:04:40.072Z,56.03
2022-10-25T10:05:49.322Z,56.43
2022-10-25T10:06:57.545Z,56.81
2022-10-25T10:07:59.635Z,56.68
2022-10-25T10:09:07.395Z,56.49
2022-10-25T10:10:14.745Z,56.76
2022-10-25T10:11:18.680Z,56.64
2022-10-25T10:12:39.553Z,57.60
2022-10-25T10:14:09.152Z,56.35
2022-10-25T10:15:36.323Z,55.80
2022-10-25T10:16:48.134Z,56.74
2022-10-25T10:18:35.130Z,56.10
2022-10-25T10:19:39.288Z,56.33
2022-10-25T10:21:02.949Z,56.18
2022-10-25T10:22:14.034Z,55.81
2022-10-25T10:56:52.486Z,59.61
2022-10-25T10:58:17.293Z,60.44
2022-10-25T10:59:53.022Z,60.44
2022-10-25T11:01:47.498Z,60.69
2022-10-25T11:02:53.996Z,60.16
2022-10-25T11:04:00.034Z,60.17
2022-10-25T11:05:29.581Z,60.33
2022-10-25T11:06:35.516Z,60.30
2022-10-25T11:07:43.520Z,60.38
2022-10-25T11:09:56.816Z,60.64
2022-10-25T11:11:36.167Z,61.11
2022-10-25T11:12:43.610Z,60.48
2022-10-25T11:14:32.168Z,59.70
2022-10-25T11:16:53.253Z,59.69
2022-10-25T11:30:49.896Z,60.83
2022-10-25T11:32:14.444Z,60.60
2022-10-25T11:33:41.744Z,59.54
2022-10-25T11:37:22.404Z,59.00
2022-10-25T11:41:52.350Z,58.62
2022-10-25T11:43:32.198Z,59.25
2022-10-25T11:45:12.589Z,59.00
2022-10-25T11:46:35.247Z,58.50
2022-10-25T11:48:16.168Z,58.27
2022-10-25T11:49:51.459Z,58.99
2022-10-25T11:51:40.944Z,58.84
2022-10-25T11:55:15.077Z,58.06
2022-10-25T11:56:54.053Z,58.76
2022-10-25T12:02:22.528Z,58.96
2022-10-25T12:04:17.213Z,58.40
2022-10-25T12:06:00.121Z,57.88
2022-10-25T12:07:34.624Z,56.59
2022-10-25T12:09:08.466Z,56.73
2022-10-25T12:10:35.221Z,56.75
2022-10-25T12:11:55.117Z,57.26
2022-10-25T12:13:04.326Z,57.04
2022-10-25T12:16:15.578Z,59.66
2022-10-25T12:17:39.695Z,57.20
2022-10-25T12:20:51.558Z,57.40
2022-10-25T12:22:08.025Z,57.31
2022-10-25T12:23:19.780Z,57.16
2022-10-25T12:26:54.196Z,57.08
2022-10-25T12:28:28.697Z,57.43
2022-10-25T12:29:41.063Z,57.38
2022-10-25T12:30:45.592Z,57.63
2022-10-25T12:32:02.386Z,57.52
2022-10-25T12:33:16.882Z,58.11
2022-10-25T12:34:42.376Z,57.94
2022-10-25T12:35:54.580Z,58.15
2022-10-25T12:37:10.897Z,57.95
2022-10-25T12:38:37.073Z,58.39
2022-10-25T12:39:43.313Z,57.72
2022-10-25T12:42:51.521Z,57.26
2022-10-25T12:44:22.093Z,57.35
2022-10-25T12:45:47.667Z,57.79
2022-10-25T12:47:16.013Z,57.20
2022-10-25T12:49:03.465Z,57.33
2022-10-25T12:50:37.181Z,57.74
2022-10-25T12:52:34.617Z,57.79
2022-10-25T12:54:13.319Z,57.64
2022-10-25T12:55:21.624Z,57.78
2022-10-25T12:56:43.328Z,57.66
2022-10-25T12:58:23.266Z,58.29
2022-10-25T12:59:33.564Z,58.27
2022-10-25T13:01:22.851Z,59.44
2022-10-25T13:03:04.325Z,61.30
2022-10-25T13:04:31.342Z,62.90
2022-10-25T13:05:59.019Z,62.47
2022-10-25T13:07:05.988Z,62.82
2022-10-25T13:08:18.467Z,63.26
2022-10-25T13:09:33.469Z,64.49
2022-10-25T13:10:47.851Z,66.14
2022-10-25T13:16:19.585Z,71.23
2022-10-25T13:17:25.339Z,72.40
2022-10-25T13:18:44.809Z,74.31
2022-10-25T13:19:55.037Z,75.42
2022-10-25T13:21:05.157Z,77.06
2022-10-25T13:22:35.820Z,78.48
2022-10-25T13:23:47.326Z,79.57
2022-10-25T13:24:49.868Z,80.75
2022-10-25T13:25:55.230Z,80.71
2022-10-25T13:27:19.896Z,81.35
2022-10-25T13:28:36.041Z,82.47
2022-10-25T13:29:59.385Z,82.80
2022-10-25T13:31:33.539Z,83.25
2022-10-25T13:32:39.784Z,83.86
2022-10-25T13:33:42.199Z,84.26
2022-10-25T13:34:45.479Z,83.99
2022-10-25T13:36:00.335Z,84.60
2022-10-25T13:37:27.131Z,85.32
2022-10-25T13:38:38.045Z,85.93
2022-10-25T13:39:47.275Z,86.41
2022-10-25T13:41:15.041Z,86.77
2022-10-25T13:42:25.517Z,87.32
2022-10-25T13:43:56.156Z,87.19
2022-10-25T13:45:04.415Z,87.95
2022-10-25T13:46:12.075Z,88.24
2022-10-25T13:47:55.503Z,87.83
2022-10-25T13:48:59.988Z,87.98
2022-10-25T13:50:17.653Z,87.85
2022-10-25T13:51:26.389Z,88.38
2022-10-25T13:52:32.725Z,88.86
2022-10-25T13:53:48.605Z,88.77
2022-10-25T13:55:00.225Z,89.82
2022-10-25T13:56:07.395Z,90.09
2022-10-25T13:57:49.152Z,90.55
2022-10-25T13:58:55.850Z,90.68
2022-10-25T14:00:02.305Z,90.83
2022-10-25T14:01:27.316Z,90.68
2022-10-25T14:02:33.537Z,90.55
2022-10-25T14:04:03.355Z,90.90
2022-10-25T14:05:09.161Z,90.87
2022-10-25T14:06:38.688Z,91.07
2022-10-25T14:07:41.336Z,90.70
2022-10-25T14:09:12.153Z,91.01
2022-10-25T14:10:28.584Z,91.72
2022-10-25T14:11:52.769Z,91.83
2022-10-25T14:13:10.633Z,92.08
2022-10-25T14:14:27.889Z,92.59
2022-10-25T14:15:40.425Z,93.16
2022-10-25T14:17:15.060Z,92.39
2022-10-25T14:18:23.944Z,92.78
2022-10-25T14:19:51.514Z,93.43
2022-10-25T14:21:01.418Z,93.86
2022-10-25T14:22:29.049Z,93.46
2022-10-25T14:23:40.347Z,93.73
2022-10-25T14:24:54.414Z,93.88
2022-10-25T14:26:04.332Z,94.35
2022-10-25T14:27:36.581Z,94.62
2022-10-25T14:33:21.804Z,95.58
2022-10-25T14:34:29.196Z,95.84
2022-10-25T14:35:35.555Z,95.67
2022-10-25T14:36:38.116Z,95.69
2022-10-25T14:37:44.153Z,96.46
2022-10-25T14:39:01.970Z,96.74
2022-10-25T14:40:33.652Z,97.40
2022-10-25T14:41:57.411Z,97.89
2022-10-25T14:43:23.936Z,97.87
2022-10-25T14:44:47.028Z,98.14
2022-10-25T14:46:04.675Z,97.85
2022-10-25T14:47:30.731Z,98.24
2022-10-25T14:48:34.178Z,97.86
2022-10-25T14:49:37.889Z,98.16
2022-10-25T14:50:40.426Z,97.92
2022-10-25T14:51:45.320Z,98.39
2022-10-25T14:52:51.171Z,98.91
2022-10-25T14:54:04.331Z,98.40
2022-10-25T14:55:07.170Z,98.92
2022-10-25T14:56:09.575Z,99.23
2022-10-25T14:57:11.806Z,99.45
2022-10-25T14:58:16.417Z,99.65
2022-10-25T14:59:27.985Z,100.00
2022-10-25T15:00:30.668Z,100.00
2022-10-25T15:01:34.310Z,100.00
2022-10-25T15:02:42.819Z,100.00
2022-10-25T15:03:48.202Z,100.00
2022-10-25T15:04:58.702Z,100.00
2022-10-25T15:06:02.058Z,100.00
2022-10-25T15:07:10.178Z,100.00
2022-10-25T15:08:20.281Z,100.00
2022-10-25T15:09:42.737Z,100.00
2022-10-25T15:10:58.203Z,100.00
2022-10-25T15:12:12.017Z,100.00
2022-10-25T15:13:29.785Z,100.00
2022-10-25T15:14:32.631Z,100.00
2022-10-25T15:15:45.108Z,100.00
2022-10-25T15:16:50.094Z,100.00
2022-10-25T15:17:53.259Z,100.00
2022-10-25T15:19:18.350Z,100.00
2022-10-25T15:20:21.989Z,100.00
2022-10-25T15:21:38.885Z,100.00
2022-10-25T15:22:46.618Z,100.00
2022-10-25T15:24:13.778Z,100.00
2022-10-25T15:25:19.759Z,100.00
2022-10-25T15:26:27.887Z,100.00
2022-10-25T15:27:39.549Z,100.00
2022-10-25T15:28:49.284Z,100.00
2022-10-25T15:29:51.273Z,100.00
2022-10-25T15:31:07.489Z,100.00
2022-10-25T15:32:19.575Z,100.00
2022-10-25T15:33:30.429Z,100.00
2022-10-25T15:34:33.139Z,100.00
2022-10-25T15:35:52.038Z,100.00
2022-10-25T15:36:55.816Z,100.00
2022-10-25T15:37:57.867Z,100.00
2022-10-25T15:39:10.174Z,100.00
2022-10-25T15:40:17.171Z,100.00
2022-10-25T15:41:19.156Z,100.00
2022-10-25T15:42:24.105Z,100.00
2022-10-25T15:43:27.156Z,100.00
2022-10-25T15:44:31.504Z,100.00
2022-10-25T15:45:34.057Z,100.00
2022-10-25T15:46:38.353Z,100.00
2022-10-25T15:47:47.448Z,100.00
2022-10-25T15:48:50.099Z,100.00
2022-10-25T15:49:53.557Z,100.00
2022-10-25T15:50:58.138Z,100.00
2022-10-25T15:52:00.221Z,100.00
2022-10-25T15:53:03.162Z,100.00
2022-10-25T15:54:14.748Z,100.00
2022-10-25T15:55:22.598Z,100.00
2022-10-25T15:56:27.943Z,100.00
2022-10-25T15:57:30.318Z,100.00
2022-10-25T15:58:32.446Z,100.00
2022-10-25T15:59:34.749Z,100.00
2022-10-25T16:00:37.040Z,100.00
2022-10-25T16:01:48.134Z,100.00
2022-10-25T16:02:51.387Z,100.00
2022-10-25T16:03:53.543Z,100.00
2022-10-25T16:04:55.787Z,100.00
2022-10-25T16:05:57.828Z,100.00
2022-10-25T16:07:00.254Z,100.00
2022-10-25T16:08:03.063Z,100.00
2022-10-25T16:09:07.604Z,100.00
2022-10-25T16:10:09.835Z,100.00
2022-10-25T16:11:19.333Z,100.00
2022-10-25T16:12:30.397Z,100.00
2022-10-25T16:13:38.075Z,100.00
2022-10-25T16:14:40.743Z,100.00
2022-10-25T16:15:43.193Z,100.00
2022-10-25T16:16:46.563Z,100.00
2022-10-25T16:17:48.586Z,100.00
2022-10-25T16:18:50.773Z,100.00
2022-10-25T16:19:53.904Z,100.00
2022-10-25T16:20:58.121Z,100.00
2022-10-25T16:22:00.457Z,100.00
2022-10-25T16:23:02.696Z,100.00
2022-10-25T16:24:04.848Z,100.00
2022-10-25T16:25:07.341Z,100.00
2022-10-25T16:26:22.754Z,100.00
2022-10-25T16:27:24.817Z,100.00
2022-10-25T16:28:27.026Z,100.00
2022-10-25T16:29:29.881Z,100.00
2022-10-25T16:30:36.511Z,100.00
2022-10-25T16:31:40.388Z,100.00
2022-10-25T16:32:43.694Z,100.00
2022-10-25T16:33:45.869Z,100.00
2022-10-25T16:34:50.285Z,100.00
2022-10-25T16:35:56.848Z,100.00
2022-10-25T16:36:59.038Z,100.00
2022-10-25T16:38:01.244Z,100.00
2022-10-25T16:39:04.878Z,100.00
2022-10-25T16:40:07.851Z,100.00
2022-10-25T16:41:25.064Z,100.00
2022-10-25T16:42:32.716Z,100.00
2022-10-25T16:43:34.936Z,100.00
2022-10-25T16:44:37.852Z,100.00
2022-10-25T16:45:40.691Z,100.00
2022-10-25T16:46:42.926Z,100.00
2022-10-25T16:47:47.174Z,100.00
2022-10-25T16:48:49.586Z,100.00
2022-10-25T16:49:53.353Z,100.00
2022-10-25T16:50:58.811Z,100.00
2022-10-25T16:52:01.383Z,100.00
2022-10-25T16:53:09.536Z,100.00
2022-10-25T16:54:12.945Z,100.00
2022-10-25T16:55:16.243Z,100.00
2022-10-25T16:56:20.673Z,100.00
2022-10-25T16:57:26.355Z,100.00
2022-10-25T16:58:29.141Z,100.00
2022-10-25T16:59:32.006Z,100.00
2022-10-25T17:00:36.221Z,100.00
2022-10-25T17:01:43.710Z,100.00
2022-10-25T17:02:49.969Z,100.00
2022-10-25T17:03:53.164Z,100.00
2022-10-25T17:04:55.430Z,100.00
2022-10-25T17:05:57.701Z,100.00
2022-10-25T17:07:04.644Z,100.00
2022-10-25T17:08:09.643Z,100.00
2022-10-25T17:09:11.871Z,100.00
2022-10-25T17:10:16.624Z,100.00
2022-10-25T17:11:20.054Z,100.00
2022-10-25T17:12:27.042Z,100.00
2022-10-25T17:13:30.996Z,100.00
2022-10-25T17:14:35.725Z,100.00
2022-10-25T17:15:39.315Z,100.00
2022-10-25T17:16:44.567Z,100.00
2022-10-25T17:17:48.422Z,100.00
2022-10-25T17:18:51.296Z,100.00
2022-10-25T17:19:53.963Z,100.00
2022-10-25T17:20:56.403Z,100.00
2022-10-25T17:22:02.391Z,100.00
2022-10-25T17:23:07.249Z,100.00
2022-10-25T17:24:11.121Z,100.00
2022-10-25T17:25:13.538Z,100.00
2022-10-25T17:26:17.127Z,100.00
2022-10-25T17:27:20.620Z,100.00
2022-10-25T17:28:24.250Z,100.00
2022-10-25T17:29:29.958Z,100.00
2022-10-25T17:30:41.471Z,100.00
2022-10-25T17:31:45.764Z,100.00
2022-10-25T17:32:48.707Z,100.00
2022-10-25T17:33:52.435Z,100.00
2022-10-25T17:34:58.008Z,100.00
2022-10-25T17:36:05.470Z,100.00
2022-10-25T17:37:08.021Z,100.00
2022-10-25T17:38:13.182Z,100.00
2022-10-25T17:39:17.008Z,100.00
2022-10-25T17:40:20.365Z,100.00
2022-10-25T17:41:22.467Z,100.00
2022-10-25T17:42:24.943Z,100.00
2022-10-25T17:43:28.139Z,100.00
2022-10-25T17:44:30.740Z,100.00
2022-10-25T17:45:34.772Z,100.00
2022-10-25T17:46:39.140Z,100.00
2022-10-25T17:47:44.580Z,100.00
2022-10-25T17:48:57.396Z,100.00
2022-10-25T17:50:05.776Z,100.00
2022-10-25T17:51:14.026Z,100.00
2022-10-25T17:52:21.596Z,100.00
2022-10-25T17:53:23.863Z,100.00
2022-10-25T17:54:26.043Z,100.00
2022-10-25T17:55:33.181Z,100.00
2022-10-25T17:56:36.677Z,100.00
2022-10-25T17:57:39.569Z,100.00
2022-10-25T17:58:46.596Z,100.00
2022-10-25T17:59:49.031Z,100.00
2022-10-25T18:00:51.424Z,100.00
2022-10-25T18:01:54.013Z,100.00
2022-10-25T18:03:00.209Z,100.00
2022-10-25T18:04:09.478Z,100.00
2022-10-25T18:05:20.110Z,100.00
2022-10-25T18:06:27.050Z,100.00
2022-10-25T18:07:34.098Z,100.00
2022-10-25T18:09:30.323Z,100.00
2022-10-25T18:10:36.992Z,100.00
2022-10-25T18:11:56.463Z,100.00
2022-10-25T18:13:03.987Z,100.00
2022-10-25T18:14:08.847Z,100.00
2022-10-25T18:15:19.859Z,100.00
2022-10-25T18:16:41.543Z,100.00
2022-10-25T18:17:50.584Z,100.00
2022-10-25T18:19:07.076Z,100.00
2022-10-25T18:20:18.710Z,100.00
2022-10-25T18:22:58.699Z,100.00
2022-10-25T18:24:19.303Z,100.00
2022-10-25T18:25:24.021Z,100.00
2022-10-25T18:27:05.317Z,100.00
2022-10-25T18:28:53.294Z,100.00
2022-10-25T18:31:20.567Z,100.00
2022-10-25T18:32:42.806Z,100.00
2022-10-25T18:34:12.876Z,100.00
2022-10-25T18:38:49.193Z,100.00
2022-10-25T19:07:31.700Z,100.00
2022-10-25T19:08:46.106Z,100.00
2022-10-25T19:09:59.372Z,100.00
2022-10-25T19:12:41.579Z,100.00
2022-10-25T19:13:59.674Z,100.00
2022-10-25T19:15:15.843Z,100.00
2022-10-25T19:16:47.174Z,100.00
2022-10-25T19:18:13.979Z,100.00
2022-10-25T19:32:30.437Z,100.00
2022-10-25T19:36:45.696Z,100.00
2022-10-25T19:37:50.775Z,100.00
2022-10-25T19:42:58.320Z,100.00
2022-10-25T19:44:34.121Z,100.00
2022-10-25T19:47:28.069Z,100.00
2022-10-25T19:48:34.162Z,100.00
2022-10-25T19:49:38.304Z,100.00
2022-10-25T19:50:41.967Z,100.00
2022-10-25T19:51:50.696Z,100.00
2022-10-25T19:52:57.278Z,100.00
2022-10-25T19:54:14.805Z,100.00
2022-10-25T19:55:24.585Z,100.00
2022-10-25T19:56:28.403Z,100.00
2022-10-25T19:57:33.308Z,100.00
2022-10-25T19:58:37.739Z,100.00
2022-10-25T19:59:43.669Z,100.00
2022-10-25T20:00:47.629Z,100.00
2022-10-25T20:01:50.247Z,100.00
2022-10-25T20:02:53.693Z,100.00
2022-10-25T20:04:00.856Z,100.00
2022-10-25T20:05:03.320Z,100.00
2022-10-25T20:06:24.676Z,100.00
2022-10-25T20:07:33.559Z,100.00
2022-10-25T20:08:39.741Z,100.00
2022-10-25T20:09:44.270Z,100.00
2022-10-25T20:11:07.874Z,100.00
2022-10-25T20:13:06.051Z,100.00
2022-10-25T20:14:11.506Z,100.00
2022-10-25T20:19:42.085Z,100.00
2022-10-25T20:20:51.708Z,100.00
2022-10-25T20:21:58.701Z,100.00
2022-10-25T20:23:00.749Z,100.00
2022-10-25T20:24:09.431Z,100.00
2022-10-25T20:26:21.263Z,100.00
2022-10-25T20:27:23.959Z,100.00
2022-10-25T20:28:37.761Z,100.00
2022-10-25T20:29:43.473Z,100.00
2022-10-25T20:30:46.049Z,100.00
2022-10-25T20:31:49.702Z,100.00
2022-10-25T20:32:56.360Z,100.00
2022-10-25T20:34:01.790Z,100.00
2022-10-25T20:35:05.568Z,100.00
2022-10-25T20:36:11.707Z,100.00
2022-10-25T20:37:14.591Z,100.00
2022-10-25T20:38:16.963Z,100.00
2022-10-25T20:39:20.525Z,100.00
2022-10-25T20:40:22.833Z,100.00
2022-10-25T20:41:29.913Z,100.00
2022-10-25T20:42:33.962Z,100.00
2022-10-25T20:43:39.112Z,100.00
2022-10-25T20:44:43.111Z,100.00
2022-10-25T20:45:48.413Z,100.00
2022-10-25T20:46:51.416Z,100.00
2022-10-25T20:47:57.007Z,100.00
2022-10-25T20:49:01.111Z,100.00
2022-10-25T20:50:05.532Z,100.00
2022-10-25T20:51:14.646Z,100.00
2022-10-25T20:52:17.949Z,100.00
2022-10-25T20:53:21.793Z,100.00
2022-10-25T20:54:25.315Z,100.00
2022-10-25T20:55:29.676Z,100.00
2022-10-25T20:56:33.888Z,100.00
2022-10-25T20:57:39.765Z,100.00
2022-10-25T20:58:42.291Z,100.00
2022-10-25T20:59:45.893Z,100.00
2022-10-25T21:00:49.407Z,100.00
2022-10-25T21:01:52.969Z,100.00
2022-10-25T21:02:57.259Z,100.00
2022-10-25T21:04:08.032Z,100.00
2022-10-25T21:05:13.000Z,100.00
2022-10-25T21:06:16.965Z,100.00
2022-10-25T21:07:19.500Z,100.00
2022-10-25T21:08:23.917Z,100.00
2022-10-25T21:09:29.404Z,100.00
2022-10-25T21:10:36.373Z,100.00
2022-10-25T21:11:38.490Z,100.00
2022-10-25T21:12:42.790Z,100.00
2022-10-25T21:13:46.576Z,100.00
2022-10-25T21:14:48.610Z,100.00
2022-10-25T21:15:51.464Z,100.00
2022-10-25T21:16:53.680Z,100.00
2022-10-25T21:17:56.532Z,100.00
2022-10-25T21:19:04.305Z,100.00
2022-10-25T21:20:08.502Z,100.00
2022-10-25T21:21:20.973Z,100.00
2022-10-25T21:22:23.510Z,100.00
2022-10-25T21:23:31.213Z,100.00
2022-10-25T21:25:40.738Z,100.00
2022-10-25T21:26:42.775Z,100.00
2022-10-25T21:27:45.679Z,100.00
2022-10-25T21:28:47.932Z,100.00
2022-10-25T21:29:50.892Z,100.00
2022-10-25T21:30:54.743Z,100.00
2022-10-25T21:31:56.706Z,100.00
2022-10-25T21:33:03.476Z,100.00
2022-10-25T21:34:07.746Z,100.00
2022-10-25T21:35:11.553Z,100.00
2022-10-25T21:36:15.690Z,100.00
2022-10-25T21:37:21.697Z,100.00
2022-10-25T21:38:26.951Z,100.00
2022-10-25T21:39:32.025Z,100.00
2022-10-25T21:40:35.403Z,100.00
2022-10-25T21:41:38.584Z,100.00
2022-10-25T21:42:49.245Z,100.00
2022-10-25T21:43:53.820Z,100.00
2022-10-25T21:44:57.340Z,100.00
2022-10-25T21:45:59.392Z,100.00
2022-10-25T21:47:02.790Z,100.00
2022-10-25T21:48:07.553Z,100.00
2022-10-25T21:49:09.592Z,100.00
2022-10-25T21:50:17.559Z,100.00
2022-10-25T21:51:26.690Z,100.00
2022-10-25T21:52:30.896Z,100.00
2022-10-25T21:53:33.138Z,100.00
2022-10-25T21:54:35.412Z,100.00
2022-10-25T21:55:37.377Z,100.00
2022-10-25T21:56:40.715Z,100.00
2022-10-25T21:57:42.638Z,100.00
2022-10-25T21:58:46.798Z,100.00
2022-10-25T21:59:48.833Z,100.00
2022-10-25T22:00:50.951Z,100.00
2022-10-25T22:01:53.197Z,100.00
2022-10-25T22:02:59.703Z,100.00
2022-10-25T22:04:03.157Z,100.00
2022-10-25T22:05:05.578Z,100.00
2022-10-25T22:06:17.693Z,100.00
2022-10-25T22:07:20.731Z,100.00
2022-10-25T22:08:26.986Z,100.00
2022-10-25T22:09:33.349Z,100.00
2022-10-25T22:10:39.309Z,100.00